Pantego, Texas
Current Conditions -  °F | °C
As of 3:53 PM on Wednesday 28 Jan 2015 (Local Time) from KGKY Reporting Station
Clear Clear  
Wind Chill: 80°   Ceiling: Unl
Heat Index: 80°   Visibility: 10mi
Dew Point: 40°   Wind: 10mph
Humidity: 24%   Direction: 170°S
Pressure: 29.99"   Gusts: NA
Location:  32.6916°N, 97.1334°W
Report Text: KGKY 282153Z AUTO 17009KT 10SM CLR 27/04 A2999 RMK AO2 SLP151 T02670044
Loading
Personal Weather Stations






























Interactive Weather Map New forecast layout! Learn more

10-Day Weather Forecast

Advertisements
Track Severe Weather on mobile